sensor_id;sensor_type;location;lat;lon;timestamp;pressure;altitude;pressure_sealevel;temperature;humidity
12949;BME280;6539;49.476;8.484;2023-05-08T00:02:24;100836.97;;;18.48;85.24
12949;BME280;6539;49.476;8.484;2023-05-08T00:04:50;100830.50;;;18.51;85.34
12949;BME280;6539;49.476;8.484;2023-05-08T00:07:16;100838.41;;;18.53;85.16
12949;BME280;6539;49.476;8.484;2023-05-08T00:09:46;100837.19;;;18.54;85.78
12949;BME280;6539;49.476;8.484;2023-05-08T00:12:12;100841.19;;;18.53;86.23
12949;BME280;6539;49.476;8.484;2023-05-08T00:14:38;100832.50;;;18.51;86.29
12949;BME280;6539;49.476;8.484;2023-05-08T00:17:03;100830.19;;;18.49;86.54
12949;BME280;6539;49.476;8.484;2023-05-08T00:19:29;100829.72;;;18.51;86.58
12949;BME280;6539;49.476;8.484;2023-05-08T00:21:55;100828.19;;;18.50;86.53
12949;BME280;6539;49.476;8.484;2023-05-08T00:24:21;100829.41;;;18.49;86.21
12949;BME280;6539;49.476;8.484;2023-05-08T00:26:47;100828.97;;;18.50;86.08
12949;BME280;6539;49.476;8.484;2023-05-08T00:29:15;100832.19;;;18.49;86.20
12949;BME280;6539;49.476;8.484;2023-05-08T00:31:43;100828.28;;;18.46;86.22
12949;BME280;6539;49.476;8.484;2023-05-08T00:34:13;100827.19;;;18.44;86.16
12949;BME280;6539;49.476;8.484;2023-05-08T00:36:44;100828.75;;;18.45;86.01
12949;BME280;6539;49.476;8.484;2023-05-08T00:39:12;100828.06;;;18.41;86.20
12949;BME280;6539;49.476;8.484;2023-05-08T00:41:40;100828.41;;;18.43;86.16
12949;BME280;6539;49.476;8.484;2023-05-08T00:44:05;100826.16;;;18.38;86.53
12949;BME280;6539;49.476;8.484;2023-05-08T00:46:31;100826.16;;;18.38;86.43
12949;BME280;6539;49.476;8.484;2023-05-08T00:48:57;100833.84;;;18.34;86.73
12949;BME280;6539;49.476;8.484;2023-05-08T00:51:25;100824.41;;;18.31;87.19
12949;BME280;6539;49.476;8.484;2023-05-08T00:53:52;100832.41;;;18.29;87.30
12949;BME280;6539;49.476;8.484;2023-05-08T00:56:19;100837.53;;;18.31;87.23
12949;BME280;6539;49.476;8.484;2023-05-08T00:58:47;100835.53;;;18.31;87.06
12949;BME280;6539;49.476;8.484;2023-05-08T01:01:15;100836.44;;;18.28;87.15
12949;BME280;6539;49.476;8.484;2023-05-08T01:03:42;100831.31;;;18.26;87.29
12949;BME280;6539;49.476;8.484;2023-05-08T01:06:11;100839.63;;;18.26;86.86
12949;BME280;6539;49.476;8.484;2023-05-08T01:08:37;100839.63;;;18.26;86.38
12949;BME280;6539;49.476;8.484;2023-05-08T01:11:18;100848.88;;;18.23;86.77
12949;BME280;6539;49.476;8.484;2023-05-08T01:21:36;100852.56;;;18.20;86.33
12949;BME280;6539;49.476;8.484;2023-05-08T01:24:23;100851.00;;;18.19;86.63
12949;BME280;6539;49.476;8.484;2023-05-08T01:33:33;100853.47;;;18.17;86.86
12949;BME280;6539;49.476;8.484;2023-05-08T01:41:35;100854.91;;;18.22;86.63
12949;BME280;6539;49.476;8.484;2023-05-08T01:44:17;100859.69;;;18.21;86.58
12949;BME280;6539;49.476;8.484;2023-05-08T01:46:50;100865.25;;;18.21;86.43
12949;BME280;6539;49.476;8.484;2023-05-08T01:49:33;100859.34;;;18.19;86.15
12949;BME280;6539;49.476;8.484;2023-05-08T01:52:07;100857.78;;;18.18;86.15
12949;BME280;6539;49.476;8.484;2023-05-08T01:54:49;100858.56;;;18.19;86.28
12949;BME280;6539;49.476;8.484;2023-05-08T01:57:18;100859.78;;;18.18;86.22
12949;BME280;6539;49.476;8.484;2023-05-08T01:59:46;100857.44;;;18.16;86.44
12949;BME280;6539;49.476;8.484;2023-05-08T02:02:16;100863.34;;;18.18;86.38
12949;BME280;6539;49.476;8.484;2023-05-08T02:04:45;100859.44;;;18.16;86.89
12949;BME280;6539;49.476;8.484;2023-05-08T02:07:11;100865.78;;;18.16;86.76
12949;BME280;6539;49.476;8.484;2023-05-08T02:09:44;100861.00;;;18.17;86.74
12949;BME280;6539;49.476;8.484;2023-05-08T02:12:16;100863.00;;;18.16;86.54
12949;BME280;6539;49.476;8.484;2023-05-08T02:14:44;100859.13;;;18.14;86.91
12949;BME280;6539;49.476;8.484;2023-05-08T02:17:15;100863.13;;;18.13;87.21
12949;BME280;6539;49.476;8.484;2023-05-08T02:19:45;100863.56;;;18.11;87.46
12949;BME280;6539;49.476;8.484;2023-05-08T02:22:17;100863.22;;;18.09;87.76
12949;BME280;6539;49.476;8.484;2023-05-08T02:24:46;100857.34;;;18.07;87.78
12949;BME280;6539;49.476;8.484;2023-05-08T02:27:20;100848.34;;;18.03;87.79
12949;BME280;6539;49.476;8.484;2023-05-08T02:29:50;100860.25;;;18.04;88.12
12949;BME280;6539;49.476;8.484;2023-05-08T02:32:24;100861.03;;;18.04;88.04
12949;BME280;6539;49.476;8.484;2023-05-08T02:34:56;100857.91;;;18.02;88.36
12949;BME280;6539;49.476;8.484;2023-05-08T02:37:27;100862.56;;;18.05;88.05
12949;BME280;6539;49.476;8.484;2023-05-08T02:39:57;100864.69;;;18.01;88.06
12949;BME280;6539;49.476;8.484;2023-05-08T02:42:25;100867.47;;;18.01;88.22
12949;BME280;6539;49.476;8.484;2023-05-08T02:44:55;100870.56;;;18.03;88.23
12949;BME280;6539;49.476;8.484;2023-05-08T02:48:31;100874.47;;;18.06;88.36
12949;BME280;6539;49.476;8.484;2023-05-08T02:50:30;100878.34;;;18.08;88.42
12949;BME280;6539;49.476;8.484;2023-05-08T02:53:07;100875.25;;;18.06;88.74
12949;BME280;6539;49.476;8.484;2023-05-08T02:55:48;100876.91;;;18.04;89.11
12949;BME280;6539;49.476;8.484;2023-05-08T02:58:23;100875.25;;;18.06;88.93
12949;BME280;6539;49.476;8.484;2023-05-08T03:01:43;100879.22;;;18.05;89.30
12949;BME280;6539;49.476;8.484;2023-05-08T03:04:15;100876.91;;;18.04;89.23
12949;BME280;6539;49.476;8.484;2023-05-08T03:06:47;100874.47;;;18.06;89.23
12949;BME280;6539;49.476;8.484;2023-05-08T03:09:23;100874.13;;;18.04;89.20
12949;BME280;6539;49.476;8.484;2023-05-08T03:12:00;100874.00;;;18.07;89.25
12949;BME280;6539;49.476;8.484;2023-05-08T03:14:38;100874.00;;;18.07;88.93
12949;BME280;6539;49.476;8.484;2023-05-08T03:17:09;100878.81;;;18.07;89.20
12949;BME280;6539;49.476;8.484;2023-05-08T03:19:37;100874.47;;;18.06;88.98
12949;BME280;6539;49.476;8.484;2023-05-08T03:22:06;100877.25;;;18.06;88.29
12949;BME280;6539;49.476;8.484;2023-05-08T03:24:37;100864.22;;;18.03;88.51
12949;BME280;6539;49.476;8.484;2023-05-08T03:27:08;100868.25;;;18.02;88.86
12949;BME280;6539;49.476;8.484;2023-05-08T03:29:37;100876.25;;;18.00;88.93
12949;BME280;6539;49.476;8.484;2023-05-08T03:32:05;100873.91;;;17.98;88.82
12949;BME280;6539;49.476;8.484;2023-05-08T03:34:35;100880.56;;;18.01;88.92
12949;BME280;6539;49.476;8.484;2023-05-08T03:37:06;100878.56;;;18.01;88.59
12949;BME280;6539;49.476;8.484;2023-05-08T03:39:31;100880.91;;;18.03;88.49
12949;BME280;6539;49.476;8.484;2023-05-08T03:41:58;100873.00;;;18.01;88.67
12949;BME280;6539;49.476;8.484;2023-05-08T03:44:29;100877.78;;;18.01;88.33
12949;BME280;6539;49.476;8.484;2023-05-08T03:46:57;100872.00;;;17.95;88.46
12949;BME280;6539;49.476;8.484;2023-05-08T03:49:25;100880.22;;;17.99;88.52
12949;BME280;6539;49.476;8.484;2023-05-08T03:51:56;100883.13;;;17.95;88.91
12949;BME280;6539;49.476;8.484;2023-05-08T03:54:24;100881.47;;;17.98;88.59
12949;BME280;6539;49.476;8.484;2023-05-08T03:56:53;100880.69;;;17.97;88.49
12949;BME280;6539;49.476;8.484;2023-05-08T04:03:31;100881.34;;;18.01;87.79
12949;BME280;6539;49.476;8.484;2023-05-08T04:06:13;100880.13;;;18.02;87.66
12949;BME280;6539;49.476;8.484;2023-05-08T04:08:48;100880.91;;;18.03;87.78
12949;BME280;6539;49.476;8.484;2023-05-08T04:11:31;100883.00;;;17.99;87.96
12949;BME280;6539;49.476;8.484;2023-05-08T04:14:07;100876.00;;;17.94;88.32
12949;BME280;6539;49.476;8.484;2023-05-08T04:16:39;100880.81;;;17.94;88.58
12949;BME280;6539;49.476;8.484;2023-05-08T04:19:21;100885.78;;;17.99;88.54
12949;BME280;6539;49.476;8.484;2023-05-08T04:22:05;100888.91;;;18.01;88.38
12949;BME280;6539;49.476;8.484;2023-05-08T04:24:38;100884.91;;;18.02;88.48
12949;BME280;6539;49.476;8.484;2023-05-08T04:27:11;100884.78;;;18.05;88.16
12949;BME280;6539;49.476;8.484;2023-05-08T04:29:39;100886.44;;;18.03;87.97
12949;BME280;6539;49.476;8.484;2023-05-08T04:32:11;100889.69;;;18.01;88.11
12949;BME280;6539;49.476;8.484;2023-05-08T04:34:37;100904.38;;;18.02;88.03
12949;BME280;6539;49.476;8.484;2023-05-08T04:37:06;100903.56;;;18.01;87.61
12949;BME280;6539;49.476;8.484;2023-05-08T04:39:32;100898.47;;;18.00;87.21
12949;BME280;6539;49.476;8.484;2023-05-08T04:42:00;100902.38;;;18.02;87.04
12949;BME280;6539;49.476;8.484;2023-05-08T04:44:28;100895.69;;;18.00;87.36
12949;BME280;6539;49.476;8.484;2023-05-08T04:46:54;100899.25;;;18.00;87.68
12949;BME280;6539;49.476;8.484;2023-05-08T04:49:20;100906.34;;;18.01;88.15
12949;BME280;6539;49.476;8.484;2023-05-08T04:51:46;100909.03;;;18.05;88.37
12949;BME280;6539;49.476;8.484;2023-05-08T04:54:11;100915.34;;;18.05;88.75
12949;BME280;6539;49.476;8.484;2023-05-08T04:56:39;100912.56;;;18.05;88.95
12949;BME280;6539;49.476;8.484;2023-05-08T04:59:07;100905.03;;;18.06;89.12
12949;BME280;6539;49.476;8.484;2023-05-08T05:01:36;100910.91;;;18.08;88.62
12949;BME280;6539;49.476;8.484;2023-05-08T05:04:01;100916.34;;;18.11;88.45
12949;BME280;6539;49.476;8.484;2023-05-08T05:06:27;100917.13;;;18.12;88.19
12949;BME280;6539;49.476;8.484;2023-05-08T05:08:53;100917.13;;;18.12;87.84
12949;BME280;6539;49.476;8.484;2023-05-08T05:11:19;100927.06;;;18.13;88.06
12949;BME280;6539;49.476;8.484;2023-05-08T05:13:46;100929.81;;;18.13;88.19
12949;BME280;6539;49.476;8.484;2023-05-08T05:16:12;100928.59;;;18.14;88.05
12949;BME280;6539;49.476;8.484;2023-05-08T05:18:40;100934.94;;;18.14;87.43
12949;BME280;6539;49.476;8.484;2023-05-08T05:21:10;100933.72;;;18.15;86.88
12949;BME280;6539;49.476;8.484;2023-05-08T05:23:36;100936.16;;;18.13;86.84
12949;BME280;6539;49.476;8.484;2023-05-08T05:26:04;100939.72;;;18.14;86.71
12949;BME280;6539;49.476;8.484;2023-05-08T05:28:30;100940.03;;;18.16;86.25
12949;BME280;6539;49.476;8.484;2023-05-08T05:30:55;100938.50;;;18.15;86.38
12949;BME280;6539;49.476;8.484;2023-05-08T05:33:21;100932.50;;;18.16;86.02
12949;BME280;6539;49.476;8.484;2023-05-08T05:35:47;100932.16;;;18.14;85.28
12949;BME280;6539;49.476;8.484;2023-05-08T05:38:17;100939.28;;;18.15;85.46
12949;BME280;6539;49.476;8.484;2023-05-08T05:40:43;100947.94;;;18.17;85.49
12949;BME280;6539;49.476;8.484;2023-05-08T05:43:09;100950.16;;;18.22;85.57
12949;BME280;6539;49.476;8.484;2023-05-08T05:45:37;100953.28;;;18.24;85.89
12949;BME280;6539;49.476;8.484;2023-05-08T05:48:04;100953.59;;;18.26;85.88
12949;BME280;6539;49.476;8.484;2023-05-08T05:50:40;100948.50;;;18.25;85.41
12949;BME280;6539;49.476;8.484;2023-05-08T05:53:08;100956.50;;;18.23;85.79
12949;BME280;6539;49.476;8.484;2023-05-08T05:55:34;100958.41;;;18.26;85.42
12949;BME280;6539;49.476;8.484;2023-05-08T05:58:00;100950.50;;;18.24;84.75
12949;BME280;6539;49.476;8.484;2023-05-08T06:00:31;100951.72;;;18.23;84.17
12949;BME280;6539;49.476;8.484;2023-05-08T06:02:56;100953.28;;;18.24;83.85
12949;BME280;6539;49.476;8.484;2023-05-08T06:05:22;100957.63;;;18.25;83.58
12949;BME280;6539;49.476;8.484;2023-05-08T06:07:48;100952.41;;;18.27;83.54
12949;BME280;6539;49.476;8.484;2023-05-08T06:10:17;100959.94;;;18.27;83.67
12949;BME280;6539;49.476;8.484;2023-05-08T06:12:45;100961.53;;;18.28;83.54
12949;BME280;6539;49.476;8.484;2023-05-08T06:15:14;100962.31;;;18.28;83.76
12949;BME280;6539;49.476;8.484;2023-05-08T06:17:40;100969.06;;;18.27;83.27
12949;BME280;6539;49.476;8.484;2023-05-08T06:20:07;100963.06;;;18.29;83.25
12949;BME280;6539;49.476;8.484;2023-05-08T06:22:33;100958.75;;;18.28;83.33
12949;BME280;6539;49.476;8.484;2023-05-08T06:25:01;100964.19;;;18.32;83.28
12949;BME280;6539;49.476;8.484;2023-05-08T06:27:29;100961.41;;;18.32;83.62
12949;BME280;6539;49.476;8.484;2023-05-08T06:29:55;100964.63;;;18.30;84.19
12949;BME280;6539;49.476;8.484;2023-05-08T06:32:21;100961.94;;;18.26;84.66
12949;BME280;6539;49.476;8.484;2023-05-08T06:34:50;100963.19;;;18.25;85.21
12949;BME280;6539;49.476;8.484;2023-05-08T06:37:18;100961.63;;;18.24;85.30
12949;BME280;6539;49.476;8.484;2023-05-08T06:39:47;100961.19;;;18.26;85.38
12949;BME280;6539;49.476;8.484;2023-05-08T06:42:12;100964.06;;;18.22;85.15
12949;BME280;6539;49.476;8.484;2023-05-08T06:44:38;100956.50;;;18.23;84.82
12949;BME280;6539;49.476;8.484;2023-05-08T06:47:05;100962.84;;;18.23;83.79
12949;BME280;6539;49.476;8.484;2023-05-08T06:49:34;100973.06;;;18.26;83.66
12949;BME280;6539;49.476;8.484;2023-05-08T06:52:00;100976.75;;;18.23;83.10
12949;BME280;6539;49.476;8.484;2023-05-08T06:54:28;100973.06;;;18.26;82.94
12949;BME280;6539;49.476;8.484;2023-05-08T06:56:59;100974.31;;;18.25;83.10
12949;BME280;6539;49.476;8.484;2023-05-08T06:59:27;100979.97;;;18.22;83.43
12949;BME280;6539;49.476;8.484;2023-05-08T07:01:55;100979.19;;;18.21;83.54
12949;BME280;6539;49.476;8.484;2023-05-08T07:04:21;100987.19;;;18.19;83.86
12949;BME280;6539;49.476;8.484;2023-05-08T07:06:46;100976.09;;;18.19;83.96
12949;BME280;6539;49.476;8.484;2023-05-08T07:09:14;100978.06;;;18.19;83.80
12949;BME280;6539;49.476;8.484;2023-05-08T07:11:41;100978.88;;;18.19;83.80
12949;BME280;6539;49.476;8.484;2023-05-08T07:14:07;100980.84;;;18.19;83.39
12949;BME280;6539;49.476;8.484;2023-05-08T07:16:33;100978.41;;;18.21;82.67
12949;BME280;6539;49.476;8.484;2023-05-08T07:18:59;100982.97;;;18.15;82.62
12949;BME280;6539;49.476;8.484;2023-05-08T07:21:24;100978.94;;;18.16;82.54
12949;BME280;6539;49.476;8.484;2023-05-08T07:23:52;100984.19;;;18.14;82.55
12949;BME280;6539;49.476;8.484;2023-05-08T07:26:19;100986.19;;;18.13;82.72
12949;BME280;6539;49.476;8.484;2023-05-08T07:28:46;100981.84;;;18.12;82.90
12949;BME280;6539;49.476;8.484;2023-05-08T07:31:11;100985.84;;;18.11;83.37
12949;BME280;6539;49.476;8.484;2023-05-08T07:33:39;100994.53;;;18.13;83.43
12949;BME280;6539;49.476;8.484;2023-05-08T07:36:07;100988.06;;;18.16;83.42
12949;BME280;6539;49.476;8.484;2023-05-08T07:38:33;100996.75;;;18.18;82.93
12949;BME280;6539;49.476;8.484;2023-05-08T07:41:01;100986.88;;;18.17;83.06
12949;BME280;6539;49.476;8.484;2023-05-08T07:43:31;100990.75;;;18.20;83.20
12949;BME280;6539;49.476;8.484;2023-05-08T07:46:01;100993.88;;;18.22;83.13
12949;BME280;6539;49.476;8.484;2023-05-08T07:48:27;100985.09;;;18.23;82.72
12949;BME280;6539;49.476;8.484;2023-05-08T07:50:53;100995.09;;;18.21;83.02
12949;BME280;6539;49.476;8.484;2023-05-08T07:53:22;100998.66;;;18.21;82.92
12949;BME280;6539;49.476;8.484;2023-05-08T07:55:48;101004.28;;;18.18;82.86
12949;BME280;6539;49.476;8.484;2023-05-08T07:58:13;100999.53;;;18.18;83.06
12949;BME280;6539;49.476;8.484;2023-05-08T08:00:39;101001.44;;;18.21;82.90
12949;BME280;6539;49.476;8.484;2023-05-08T08:03:05;100997.09;;;18.20;82.77
12949;BME280;6539;49.476;8.484;2023-05-08T08:05:31;101006.31;;;18.17;82.87
12949;BME280;6539;49.476;8.484;2023-05-08T08:07:57;101008.06;;;18.11;83.73
12949;BME280;6539;49.476;8.484;2023-05-08T08:10:23;101005.72;;;18.10;83.97
12949;BME280;6539;49.476;8.484;2023-05-08T08:12:48;101006.84;;;18.12;83.94
12949;BME280;6539;49.476;8.484;2023-05-08T08:15:14;101014.41;;;18.12;84.27
12949;BME280;6539;49.476;8.484;2023-05-08T08:17:40;101008.06;;;18.11;84.21
12949;BME280;6539;49.476;8.484;2023-05-08T08:20:08;101006.41;;;18.14;84.69
12949;BME280;6539;49.476;8.484;2023-05-08T08:22:36;101007.97;;;18.15;84.59
12949;BME280;6539;49.476;8.484;2023-05-08T08:25:02;101007.19;;;18.14;84.60
12949;BME280;6539;49.476;8.484;2023-05-08T08:27:30;101013.53;;;18.15;84.46
12949;BME280;6539;49.476;8.484;2023-05-08T08:29:58;101007.66;;;18.13;84.78
12949;BME280;6539;49.476;8.484;2023-05-08T08:32:24;101011.22;;;18.13;85.08
12949;BME280;6539;49.476;8.484;2023-05-08T08:34:50;101018.19;;;18.18;84.92
12949;BME280;6539;49.476;8.484;2023-05-08T08:37:18;101011.75;;;18.21;84.69
12949;BME280;6539;49.476;8.484;2023-05-08T08:39:43;101008.09;;;18.24;84.42
12949;BME280;6539;49.476;8.484;2023-05-08T08:42:12;101016.78;;;18.26;84.66
12949;BME280;6539;49.476;8.484;2023-05-08T08:44:38;101015.00;;;18.32;84.20
12949;BME280;6539;49.476;8.484;2023-05-08T08:47:04;101007.78;;;18.35;84.01
12949;BME280;6539;49.476;8.484;2023-05-08T08:49:35;101013.47;;;18.44;83.57
12949;BME280;6539;49.476;8.484;2023-05-08T08:52:25;101008.28;;;18.46;83.85
12949;BME280;6539;49.476;8.484;2023-05-08T08:54:58;101015.94;;;18.54;83.29
12949;BME280;6539;49.476;8.484;2023-05-08T08:57:30;101012.72;;;18.56;83.27
12949;BME280;6539;49.476;8.484;2023-05-08T09:00:06;101010.28;;;18.58;83.52
12949;BME280;6539;49.476;8.484;2023-05-08T09:02:36;101013.38;;;18.60;83.39
12949;BME280;6539;49.476;8.484;2023-05-08T09:05:06;101014.72;;;18.68;82.98
12949;BME280;6539;49.476;8.484;2023-05-08T09:07:36;101011.38;;;18.73;81.58
12949;BME280;6539;49.476;8.484;2023-05-08T09:10:05;101014.03;;;18.76;80.99
12949;BME280;6539;49.476;8.484;2023-05-08T09:12:32;101021.03;;;18.81;81.34
12949;BME280;6539;49.476;8.484;2023-05-08T09:14:57;101023.59;;;18.88;81.42
12949;BME280;6539;49.476;8.484;2023-05-08T09:17:23;101023.16;;;18.89;80.86
12949;BME280;6539;49.476;8.484;2023-05-08T09:19:52;101020.16;;;18.96;80.88
12949;BME280;6539;49.476;8.484;2023-05-08T09:22:20;101022.69;;;19.03;80.73
12949;BME280;6539;49.476;8.484;2023-05-08T09:24:59;101027.81;;;19.05;80.43
12949;BME280;6539;49.476;8.484;2023-05-08T09:27:29;101020.72;;;19.04;80.35
12949;BME280;6539;49.476;8.484;2023-05-08T09:30:06;101028.81;;;19.11;80.18
12949;BME280;6539;49.476;8.484;2023-05-08T09:32:38;101027.00;;;19.17;79.84
12949;BME280;6539;49.476;8.484;2023-05-08T09:35:08;101027.22;;;19.23;79.35
12949;BME280;6539;49.476;8.484;2023-05-08T09:37:41;101023.88;;;19.28;78.88
12949;BME280;6539;49.476;8.484;2023-05-08T09:40:20;101037.16;;;19.36;78.44
12949;BME280;6539;49.476;8.484;2023-05-08T09:42:47;101037.78;;;19.40;78.00
12949;BME280;6539;49.476;8.484;2023-05-08T09:45:31;101043.78;;;19.39;77.89
12949;BME280;6539;49.476;8.484;2023-05-08T09:47:59;101040.25;;;19.38;77.76
12949;BME280;6539;49.476;8.484;2023-05-08T09:50:27;101051.50;;;19.35;77.69
12949;BME280;6539;49.476;8.484;2023-05-08T09:52:53;101039.47;;;19.25;77.71
12949;BME280;6539;49.476;8.484;2023-05-08T09:55:19;101043.16;;;19.22;77.78
12949;BME280;6539;49.476;8.484;2023-05-08T09:57:56;101044.94;;;19.16;77.66
12949;BME280;6539;49.476;8.484;2023-05-08T10:00:29;101046.63;;;19.14;77.62
12949;BME280;6539;49.476;8.484;2023-05-08T10:03:03;101043.63;;;19.08;77.93
12949;BME280;6539;49.476;8.484;2023-05-08T10:05:34;101057.88;;;19.10;78.22
12949;BME280;6539;49.476;8.484;2023-05-08T10:08:23;101045.16;;;19.09;78.62
12949;BME280;6539;49.476;8.484;2023-05-08T10:10:51;101049.84;;;19.12;78.82
12949;BME280;6539;49.476;8.484;2023-05-08T10:13:17;101051.97;;;19.08;79.31
12949;BME280;6539;49.476;8.484;2023-05-08T10:15:44;101047.63;;;19.07;79.68
12949;BME280;6539;49.476;8.484;2023-05-08T10:18:13;101047.63;;;19.07;79.67
12949;BME280;6539;49.476;8.484;2023-05-08T10:20:46;101045.97;;;19.10;79.50
12949;BME280;6539;49.476;8.484;2023-05-08T10:23:19;101047.31;;;19.05;79.75
12949;BME280;6539;49.476;8.484;2023-05-08T10:25:47;101050.09;;;19.05;79.88
12949;BME280;6539;49.476;8.484;2023-05-08T10:31:30;101052.22;;;19.01;79.04
12949;BME280;6539;49.476;8.484;2023-05-08T10:34:01;101047.09;;;18.99;79.33
12949;BME280;6539;49.476;8.484;2023-05-08T10:36:31;101049.09;;;18.99;79.41
12949;BME280;6539;49.476;8.484;2023-05-08T10:38:58;101049.41;;;19.01;79.28
12949;BME280;6539;49.476;8.484;2023-05-08T10:41:25;101041.06;;;19.01;79.31
12949;BME280;6539;49.476;8.484;2023-05-08T10:43:55;101045.97;;;18.97;78.68
12949;BME280;6539;49.476;8.484;2023-05-08T10:46:45;101044.88;;;18.94;79.22
12949;BME280;6539;49.476;8.484;2023-05-08T10:50:18;101038.09;;;18.95;79.43
12949;BME280;6539;49.476;8.484;2023-05-08T10:52:32;101050.88;;;18.93;79.83
12949;BME280;6539;49.476;8.484;2023-05-08T10:58:27;101039.16;;;18.98;79.95
12949;BME280;6539;49.476;8.484;2023-05-08T11:03:29;101036.72;;;19.00;79.84
12949;BME280;6539;49.476;8.484;2023-05-08T11:05:59;101030.59;;;19.05;79.55
12949;BME280;6539;49.476;8.484;2023-05-08T11:08:28;101023.81;;;19.06;80.02
12949;BME280;6539;49.476;8.484;2023-05-08T11:13:49;101030.38;;;19.12;79.82
12949;BME280;6539;49.476;8.484;2023-05-08T11:19:28;101036.91;;;19.18;80.41
12949;BME280;6539;49.476;8.484;2023-05-08T11:22:13;101031.81;;;19.17;80.95
12949;BME280;6539;49.476;8.484;2023-05-08T11:24:53;101031.91;;;19.13;80.38
12949;BME280;6539;49.476;8.484;2023-05-08T11:30:33;101019.44;;;19.18;80.49
12949;BME280;6539;49.476;8.484;2023-05-08T11:35:59;101022.69;;;19.16;80.91
12949;BME280;6539;49.476;8.484;2023-05-08T11:38:33;101010.97;;;19.21;81.09
12949;BME280;6539;49.476;8.484;2023-05-08T11:41:06;101012.53;;;19.22;80.57
12949;BME280;6539;49.476;8.484;2023-05-08T11:46:52;101012.66;;;19.19;80.81
12949;BME280;6539;49.476;8.484;2023-05-08T11:49:24;101012.19;;;19.20;80.61
12949;BME280;6539;49.476;8.484;2023-05-08T11:51:53;101015.44;;;19.19;81.20
12949;BME280;6539;49.476;8.484;2023-05-08T11:54:23;101018.88;;;19.23;81.56
12949;BME280;6539;49.476;8.484;2023-05-08T11:56:52;101011.19;;;19.27;80.93
12949;BME280;6539;49.476;8.484;2023-05-08T11:59:19;101009.84;;;19.31;81.15
12949;BME280;6539;49.476;8.484;2023-05-08T12:01:50;101017.66;;;19.36;80.38
12949;BME280;6539;49.476;8.484;2023-05-08T12:04:16;101019.09;;;19.41;80.12
12949;BME280;6539;49.476;8.484;2023-05-08T12:06:42;101011.38;;;19.45;79.66
12949;BME280;6539;49.476;8.484;2023-05-08T12:09:11;101010.72;;;19.41;79.68
12949;BME280;6539;49.476;8.484;2023-05-08T12:11:37;101010.59;;;19.44;79.59
12949;BME280;6539;49.476;8.484;2023-05-08T12:14:05;101014.50;;;19.47;79.45
12949;BME280;6539;49.476;8.484;2023-05-08T12:16:35;101011.78;;;19.56;80.04
12949;BME280;6539;49.476;8.484;2023-05-08T12:19:13;101010.63;;;19.66;79.74
12949;BME280;6539;49.476;8.484;2023-05-08T12:21:48;101011.72;;;19.68;79.10
12949;BME280;6539;49.476;8.484;2023-05-08T12:24:15;101021.06;;;19.74;78.27
12949;BME280;6539;49.476;8.484;2023-05-08T12:26:47;101021.06;;;19.74;78.31
12949;BME280;6539;49.476;8.484;2023-05-08T12:29:13;101015.03;;;19.76;78.36
12949;BME280;6539;49.476;8.484;2023-05-08T12:31:41;101016.47;;;19.81;77.82
12949;BME280;6539;49.476;8.484;2023-05-08T12:34:07;101012.78;;;19.84;77.48
12949;BME280;6539;49.476;8.484;2023-05-08T12:36:40;101012.13;;;19.80;76.74
12949;BME280;6539;49.476;8.484;2023-05-08T12:39:17;101012.47;;;19.82;77.26
12949;BME280;6539;49.476;8.484;2023-05-08T12:41:47;101018.06;;;19.91;77.07
12949;BME280;6539;49.476;8.484;2023-05-08T12:44:24;101016.53;;;19.90;76.61
12949;BME280;6539;49.476;8.484;2023-05-08T12:46:56;101013.75;;;19.90;76.44
12949;BME280;6539;49.476;8.484;2023-05-08T12:49:31;101005.38;;;19.90;75.88
12949;BME280;6539;49.476;8.484;2023-05-08T12:52:10;101004.59;;;19.89;76.27
12949;BME280;6539;49.476;8.484;2023-05-08T12:54:49;101012.63;;;19.87;76.01
12949;BME280;6539;49.476;8.484;2023-05-08T12:57:20;101007.53;;;19.86;76.13
12949;BME280;6539;49.476;8.484;2023-05-08T12:59:49;100999.75;;;19.81;75.82
12949;BME280;6539;49.476;8.484;2023-05-08T13:02:19;100998.84;;;19.84;75.88
12949;BME280;6539;49.476;8.484;2023-05-08T13:04:53;101004.41;;;19.84;76.07
12949;BME280;6539;49.476;8.484;2023-05-08T13:07:22;100995.13;;;19.87;76.06
12949;BME280;6539;49.476;8.484;2023-05-08T13:10:02;101001.34;;;19.91;75.53
12949;BME280;6539;49.476;8.484;2023-05-08T13:12:30;101002.44;;;19.93;75.05
12949;BME280;6539;49.476;8.484;2023-05-08T13:14:58;100999.22;;;19.95;74.92
12949;BME280;6539;49.476;8.484;2023-05-08T13:17:23;100991.03;;;20.00;75.05
12949;BME280;6539;49.476;8.484;2023-05-08T13:19:49;100994.00;;;20.06;74.99
12949;BME280;6539;49.476;8.484;2023-05-08T13:22:17;100983.53;;;20.10;74.59
12949;BME280;6539;49.476;8.484;2023-05-08T13:24:47;100987.84;;;20.11;74.87
12949;BME280;6539;49.476;8.484;2023-05-08T13:27:15;100988.97;;;20.13;74.38
12949;BME280;6539;49.476;8.484;2023-05-08T13:29:41;100987.13;;;20.19;74.35
12949;BME280;6539;49.476;8.484;2023-05-08T13:32:06;100996.03;;;20.27;74.23
12949;BME280;6539;49.476;8.484;2023-05-08T13:34:32;100998.53;;;20.34;73.79
12949;BME280;6539;49.476;8.484;2023-05-08T13:37:00;100989.00;;;20.44;73.43
12949;BME280;6539;49.476;8.484;2023-05-08T13:39:29;100988.53;;;20.45;73.40
12949;BME280;6539;49.476;8.484;2023-05-08T13:41:57;100986.84;;;20.48;73.15
12949;BME280;6539;49.476;8.484;2023-05-08T13:44:25;100984.34;;;20.50;72.72
12949;BME280;6539;49.476;8.484;2023-05-08T13:46:51;100983.41;;;20.44;72.87
12949;BME280;6539;49.476;8.484;2023-05-08T13:49:17;100985.56;;;20.40;73.01
12949;BME280;6539;49.476;8.484;2023-05-08T13:51:44;100983.22;;;20.38;73.22
12949;BME280;6539;49.476;8.484;2023-05-08T13:54:10;100980.91;;;20.37;73.33
12949;BME280;6539;49.476;8.484;2023-05-08T13:56:38;100978.56;;;20.35;73.12
12949;BME280;6539;49.476;8.484;2023-05-08T13:59:04;100977.78;;;20.35;73.35
12949;BME280;6539;49.476;8.484;2023-05-08T14:01:29;100978.38;;;20.30;73.52
12949;BME280;6539;49.476;8.484;2023-05-08T14:03:58;100985.19;;;20.29;73.58